Kassel-Calden Airport

EDVK · Hessen, Alemania

METAR pasados EDVK · Kassel-Calden Airport

A continuación puedes ver los METAR de los últimos días. Selecciona un año para ver los METAR más antiguos, desde el año 2007 en adelante.

23 de mayo de 2024

Hora Código Tiempo Temp. Visibilidad Cielo nuboso Viento METAR/SPECI
04:20
V
11 °C 10 km+ - 360° 360° 0 kt METAR EDVK 230220Z AUTO 00000KT 9999 // FEW071/// 11/10 Q1013
03:50
V
11 °C 10 km+ - Var Var 2 kt METAR EDVK 230150Z AUTO VRB02KT 9999 // NCD 11/10 Q1013
03:20
V
11 °C 10 km+ - 240° 240° 3 kt METAR EDVK 230120Z AUTO 24003KT 200V270 9999 // FEW051/// SCT058/// 11/11 Q1013
02:50
V
11 °C 10 km+ 5.000 ft 210° 210° 3 kt METAR EDVK 230050Z AUTO 21003KT 190V250 9999 // BKN050/// 11/11 Q1013
02:20
V
12 °C 10 km+ - Var Var 1 kt METAR EDVK 230020Z AUTO VRB01KT 9999 // FEW048/// SCT058/// 12/11 Q1013
01:50
V
12 °C 10 km+ 4.800 ft 220° 220° 3 kt METAR EDVK 222350Z AUTO 22003KT 190V250 9999 // BKN048/// BKN058/// 12/11 Q1013
01:20
I
12 °C 2,7 km 5.900 ft 210° 210° 4 kt METAR EDVK 222320Z AUTO 21004KT 9999 2700 // BKN059/// 12/11 Q1013
00:50
I
11 °C 1,8 km - 220° 220° 4 kt METAR EDVK 222250Z AUTO 22004KT 6000 1800 // FEW001/// SCT060/// 11/11 Q1013
00:20
I
11 °C 3,9 km - 220° 220° 4 kt METAR EDVK 222220Z AUTO 22004KT 9999 3900 // NCD 11/11 Q1013

22 de mayo de 2024

Hora Código Tiempo Temp. Visibilidad Cielo nuboso Viento METAR/SPECI
23:50
V
11 °C 10 km+ - 220° 220° 3 kt METAR EDVK 222150Z AUTO 22003KT 9999 // NCD 11/11 Q1013
23:20
V
12 °C 10 km+ - 220° 220° 3 kt METAR EDVK 222120Z AUTO 22003KT 9999 // NCD 12/12 Q1013
22:50
V
13 °C 10 km+ - 220° 220° 3 kt METAR EDVK 222050Z AUTO 22003KT 9999 // NCD 13/12 Q1013
22:20
V
13 °C 10 km+ - Var Var 2 kt METAR EDVK 222020Z AUTO VRB02KT 9999 // NCD 13/13 Q1012
21:50
V
14 °C 10 km+ - 200° 200° 4 kt METAR EDVK 221950Z AUTO 20004KT 9999 // FEW026/// 14/13 Q1012
21:20
V
15 °C 10 km+ - 200° 200° 4 kt METAR EDVK 221920Z 20004KT 9999 SCT027 SCT049 15/14 Q1012
20:50
V
15 °C 10 km+ - 210° 210° 2 kt METAR EDVK 221850Z 21002KT 9999 SCT028 SCT039 15/13 Q1012
20:20
V
16 °C 10 km+ - Var Var 2 kt METAR EDVK 221820Z VRB02KT 9999 FEW034 SCT039 16/13 Q1011
19:50
V
15 °C 10 km+ - 230° 230° 3 kt METAR EDVK 221750Z 23003KT 200V260 CAVOK 15/14 Q1011
19:20
V
15 °C 10 km+ - 210° 210° 4 kt METAR EDVK 221720Z 21004KT 9999 -RA FEW028 SCT049 15/13 Q1011
18:50
V
15 °C 10 km+ 3.500 ft 200° 200° 8 kt METAR EDVK 221650Z 20008KT 9999 RA FEW015 BKN035 15/13 Q1010
18:20
V
16 °C 10 km+ - 280° 280° 7 kt METAR EDVK 221620Z 28007KT 9999 SCT036 16/12 Q1010
17:50
V
16 °C 10 km+ 4.400 ft 250° 250° 5 kt METAR EDVK 221550Z 25005KT 220V290 9999 -RA FEW027 BKN044 16/13 Q1010
17:20
M
15 °C 10 km+ 3.000 ft 250° 250° 8 kt METAR EDVK 221520Z 25008KT 9999 -RA FEW004 SCT026 BKN030 15/13 Q1010
16:50
V
17 °C 10 km+ 3.700 ft 320° 320° 4 kt METAR EDVK 221450Z 32004KT 290V020 9999 SCT031 BKN037 17/12 Q1010
16:20
V
18 °C 10 km+ 3.400 ft 330° 330° 4 kt METAR EDVK 221420Z 33004KT 260V020 9999 SCT027 BKN034 18/12 Q1010
15:50
V
18 °C 10 km+ - 290° 290° 5 kt METAR EDVK 221350Z 29005KT 260V330 9999 SCT028 18/12 Q1010
15:20
V
17 °C 10 km+ - 290° 290° 4 kt METAR EDVK 221320Z 29004KT 240V350 9999 SCT025 17/11 Q1010
14:50
V
17 °C 10 km+ - 290° 290° 5 kt METAR EDVK 221250Z 29005KT 250V340 9999 SCT025 17/12 Q1010
14:20
V
17 °C 10 km+ - 290° 290° 7 kt METAR EDVK 221220Z 29007KT 240V320 9999 FEW022 17/13 Q1010
13:50
V
17 °C 10 km+ - 280° 280° 8 kt METAR EDVK 221150Z 28008KT 9999 FEW019 17/13 Q1010
13:20
V
17 °C 10 km+ - 240° 240° 5 kt METAR EDVK 221120Z 24005KT 210V290 9999 FEW022 SCT049 17/14 Q1009
12:50
V
15 °C 10 km+ - Var Var 2 kt METAR EDVK 221050Z VRB02KT 9999 -RA FEW009 SCT019 15/14 Q1009
12:20
V
16 °C 10 km+ - 210° 210° 3 kt METAR EDVK 221020Z 21003KT 170V240 9999 -RA FEW019 SCT041 16/14 Q1009
11:50
V
16 °C 10 km+ - 210° 210° 4 kt METAR EDVK 220950Z 21004KT 180V240 9999 -RA FEW019 SCT036 16/13 Q1009
11:20
V
16 °C 10 km+ - 210° 210° 5 kt METAR EDVK 220920Z 21005KT 9999 -RA FEW019 SCT043 16/13 Q1009
10:50
V
15 °C 10 km+ - 230° 230° 6 kt METAR EDVK 220850Z 23006KT 200V260 9999 -RA FEW014 15/13 Q1008
10:20
V
16 °C 10 km+ - 240° 240° 5 kt METAR EDVK 220820Z 24005KT 9999 -RA FEW013 SCT032 16/14 Q1008
09:50
V
15 °C 10 km+ 3.600 ft 230° 230° 6 kt METAR EDVK 220750Z 23006KT 200V280 9999 FEW016 BKN036 15/13 Q1008
09:20
V
15 °C 10 km+ - Var Var 2 kt METAR EDVK 220720Z VRB02KT 9999 -RA FEW008 SCT042 15/13 Q1007
08:50
V
14 °C 9 km - 220° 220° 4 kt METAR EDVK 220650Z 22004KT 190V250 9000 -RA FEW010 SCT045 14/13 Q1007
08:20
V
14 °C 9 km - 220° 220° 4 kt METAR EDVK 220620Z 22004KT 9000 -RA FEW008 SCT035 14/13 Q1007
07:50
V
14 °C 9 km - 200° 200° 5 kt METAR EDVK 220550Z 20005KT 9000 -RA FEW008 SCT036 14/13 Q1007
07:20
V
14 °C 9 km - 200° 200° 6 kt METAR EDVK 220520Z 20006KT 9000 -RA SCT041 14/13 Q1007
06:50
V
14 °C 10 km+ - 220° 220° 7 kt METAR EDVK 220450Z AUTO 22007KT 9999 // FEW025/// SCT033/// 14/13 Q1006
06:20
V
14 °C 10 km+ 3.300 ft 210° 210° 6 kt METAR EDVK 220420Z AUTO 21006KT 9999 // SCT026/// BKN033/// BKN086/// 14/13 Q1006
05:50
V
14 °C 10 km+ - 210° 210° 6 kt METAR EDVK 220350Z AUTO 21006KT 9999 // FEW076/// 14/13 Q1006
05:20
V
14 °C 10 km+ - 190° 190° 5 kt METAR EDVK 220320Z AUTO 19005KT 9999 // SCT079/// 14/13 Q1005
04:50
V
14 °C 10 km+ 6.900 ft 200° 200° 5 kt METAR EDVK 220250Z AUTO 20005KT 170V230 9999 // BKN069/// BKN081/// 14/13 Q1005
04:20
V
14 °C 10 km+ 7.000 ft 220° 220° 5 kt METAR EDVK 220220Z AUTO 22005KT 9999 // FEW023/// SCT040/// BKN070/// 14/13 Q1005
03:50
M
15 °C 10 km+ 2.300 ft 230° 230° 7 kt METAR EDVK 220150Z AUTO 23007KT 9999 // BKN023/// 15/13 Q1005
03:20
M
15 °C 10 km+ 2.100 ft 220° 220° 8 kt METAR EDVK 220120Z AUTO 22008KT 9999 // BKN021/// OVC026/// 15/13 Q1005
02:50
M
15 °C 10 km+ 2.200 ft 220° 220° 6 kt METAR EDVK 220050Z AUTO 22006KT 190V250 9999 // BKN022/// BKN026/// BKN058/// 15/13 Q1005
02:20
V
15 °C 10 km+ - 200° 200° 8 kt METAR EDVK 220020Z AUTO 20008KT 9999 // FEW013/// SCT055/// 15/13 Q1005
01:50
V
15 °C 10 km+ - 210° 210° 8 kt METAR EDVK 212350Z AUTO 21008KT 9999 // FEW008/// SCT047/// 15/14 Q1005
01:20
M
16 °C 6 km 1.800 ft 200° 200° 6 kt METAR EDVK 212320Z AUTO 20006KT 6000 // FEW004/// SCT007/// BKN018/// 16/15 Q1005
00:50
V
16 °C 9 km - Var Var 1 kt METAR EDVK 212250Z AUTO VRB01KT 9000 // FEW013/// SCT020/// 16/15 Q1005
00:20
V
16 °C 10 km+ - 130° 130° 3 kt METAR EDVK 212220Z AUTO 13003KT 9999 // FEW014/// SCT025/// 16/15 Q1005

21 de mayo de 2024

Hora Código Tiempo Temp. Visibilidad Cielo nuboso Viento METAR/SPECI
23:50
V
16 °C 10 km+ - 150° 150° 3 kt METAR EDVK 212150Z AUTO 15003KT 9999 // FEW030/// SCT038/// 16/15 Q1004
23:20
V
16 °C 10 km+ - 110° 110° 5 kt METAR EDVK 212120Z AUTO 11005KT 9999 // FEW045/// SCT095/// 16/15 Q1005
22:50
V
16 °C 9 km - 090° 090° 4 kt METAR EDVK 212050Z AUTO 09004KT 9000 // FEW014/// SCT023/// 16/15 Q1004
22:20
V
16 °C 10 km+ - 080° 080° 3 kt METAR EDVK 212020Z AUTO 08003KT 9999 // FEW010/// SCT031/// 16/15 Q1004
21:50
V
16 °C 10 km+ - 110° 110° 7 kt METAR EDVK 211950Z AUTO 11007KT 9999 // FEW018/// SCT033/// 16/15 Q1005
21:20
M
16 °C 6 km - 060° 060° 4 kt METAR EDVK 211920Z 06004KT 010V100 6000 +RA SCT037 SCT043 16/15 Q1005
20:50
V
16 °C 8 km - 050° 050° 4 kt METAR EDVK 211850Z 05004KT 010V080 8000 -RA FEW001 SCT037 16/15 Q1005 RERA
20:20
M
16 °C 5 km - 070° 070° 5 kt METAR EDVK 211820Z 07005KT 5000 +RA FEW012 16/15 Q1005
19:50
V
16 °C 8 km - 070° 070° 7 kt METAR EDVK 211750Z 07007KT 8000 RA NSC 16/15 Q1005
19:20
M
17 °C 6 km - 070° 070° 10 kt METAR EDVK 211720Z 07010KT 6000 RA FEW022 SCT048 17/15 Q1005
18:50
V
17 °C 8 km - 100° 100° 8 kt METAR EDVK 211650Z 10008KT 060V140 8000 RA FEW033 17/15 Q1005
18:20
V
18 °C 10 km+ - 110° 110° 6 kt METAR EDVK 211620Z 11006KT 9999 -RA FEW024 SCT046 18/15 Q1005 RERA
17:50
M
19 °C 6 km - 110° 110° 5 kt METAR EDVK 211550Z 11005KT 6000 RA FEW030 19/14 Q1005
17:20
V
21 °C 10 km+ - 060° 060° 8 kt METAR EDVK 211520Z 06008KT 9999 -RA NSC 21/13 Q1005
16:50
V
23 °C 10 km+ - 060° 060° 10 kt METAR EDVK 211450Z 06010KT 9999 FEW048 23/12 Q1005
16:20
V
23 °C 10 km+ - 070° 070° 12 kt METAR EDVK 211420Z 07012KT 9999 FEW046 23/13 Q1005
15:50
V
23 °C 10 km+ - 060° 060° 11 kt METAR EDVK 211350Z 06011KT 9999 FEW046 23/14 Q1006
15:20
V
23 °C 10 km+ - 080° 080° 12 kt METAR EDVK 211320Z 08012KT 9999 FEW049 23/13 Q1006
14:50
V
23 °C 10 km+ - 090° 090° 12 kt METAR EDVK 211250Z 09012KT 9999 FEW047 23/13 Q1007
14:20
V
23 °C 10 km+ - 090° 090° 12 kt METAR EDVK 211220Z 09012KT 060V120 9999 FEW042 23/13 Q1007
13:50
V
23 °C 10 km+ - 080° 080° 9 kt METAR EDVK 211150Z 08009KT 050V110 9999 FEW036 23/12 Q1007
13:20
V
22 °C 10 km+ - 080° 080° 11 kt METAR EDVK 211120Z 08011KT 050V110 9999 FEW045 22/12 Q1008
12:50
V
22 °C 10 km+ - 100° 100° 15 kt METAR EDVK 211050Z 10015KT 9999 FEW032 22/13 Q1008
12:20
V
22 °C 10 km+ - 100° 100° 13 kt METAR EDVK 211020Z 10013KT 9999 SCT042 22/13 Q1008
11:50
V
22 °C 10 km+ - 080° 080° 10 kt METAR EDVK 210950Z 08010KT 050V110 9999 FEW036 22/13 Q1008
11:20
V
22 °C 10 km+ - 080° 080° 12 kt METAR EDVK 210920Z 08012KT 9999 FEW036 22/13 Q1008
10:50
V
21 °C 10 km+ - 090° 090° 11 kt METAR EDVK 210850Z 09011KT CAVOK 21/12 Q1008
10:20
V
20 °C 10 km+ - 100° 100° 11 kt METAR EDVK 210820Z 10011KT CAVOK 20/13 Q1008
09:50
V
19 °C 10 km+ - 090° 090° 11 kt METAR EDVK 210750Z 09011KT CAVOK 19/12 Q1009
09:20
V
19 °C 10 km+ - 090° 090° 9 kt METAR EDVK 210720Z 09009KT CAVOK 19/12 Q1009
08:50
V
18 °C 10 km+ - Var Var 3 kt METAR EDVK 210650Z VRB03KT CAVOK 18/12 Q1009
08:20
V
17 °C 10 km+ - Var Var 1 kt METAR EDVK 210620Z VRB01KT CAVOK 17/12 Q1009
07:50
V
16 °C 10 km+ - Var Var 2 kt METAR EDVK 210550Z VRB02KT CAVOK 16/12 Q1009
07:20
V
14 °C 10 km+ - 280° 280° 3 kt METAR EDVK 210520Z 28003KT 230V310 CAVOK 14/12 Q1009
06:50
V
14 °C 10 km+ - 290° 290° 2 kt METAR EDVK 210450Z AUTO 29002KT 9999 // NCD 14/12 Q1009
06:20
V
12 °C 10 km+ - 280° 280° 3 kt METAR EDVK 210420Z AUTO 28003KT 9999 // NCD 12/11 Q1009
05:50
V
11 °C 10 km+ - 290° 290° 3 kt METAR EDVK 210350Z AUTO 29003KT 260V320 9999 // NCD 11/10 Q1009
05:20
V
12 °C 10 km+ - Var Var 2 kt METAR EDVK 210320Z AUTO VRB02KT 9999 // NCD 12/11 Q1009
04:50
V
12 °C 10 km+ - 280° 280° 3 kt METAR EDVK 210250Z AUTO 28003KT 260V020 9999 // NCD 12/11 Q1010
04:20
V
12 °C 10 km+ - Var Var 2 kt METAR EDVK 210220Z AUTO VRB02KT 9999 // NCD 12/10 Q1010
03:50
V
13 °C 10 km+ - 270° 270° 3 kt METAR EDVK 210150Z AUTO 27003KT 9999 // NCD 13/11 Q1010
03:20
V
13 °C 10 km+ - 360° 360° 0 kt METAR EDVK 210120Z AUTO 00000KT 9999 // NCD 13/11 Q1010
02:50
V
12 °C 10 km+ - Var Var 1 kt METAR EDVK 210050Z AUTO VRB01KT 9999 // NCD 12/11 Q1010
02:20
V
13 °C 10 km+ - 150° 150° 3 kt METAR EDVK 210020Z AUTO 15003KT 100V200 9999 // NCD 13/11 Q1010
01:50
V
14 °C 10 km+ - Var Var 1 kt METAR EDVK 202350Z AUTO VRB01KT 9999 // NCD 14/12 Q1011
01:20
V
14 °C 10 km+ - Var Var 1 kt METAR EDVK 202320Z AUTO VRB01KT 9999 // NCD 14/11 Q1011
00:50
V
13 °C 10 km+ - Var Var 2 kt METAR EDVK 202250Z AUTO VRB02KT 9999 // NCD 13/11 Q1011
00:20
V
13 °C 10 km+ - 360° 360° 0 kt METAR EDVK 202220Z AUTO 00000KT 9999 // NCD 13/11 Q1011

20 de mayo de 2024

Hora Código Tiempo Temp. Visibilidad Cielo nuboso Viento METAR/SPECI
23:50
V
13 °C 10 km+ - 030° 030° 3 kt METAR EDVK 202150Z AUTO 03003KT 9999 // NCD 13/11 Q1011
23:20
V
13 °C 10 km+ - 360° 360° 3 kt METAR EDVK 202120Z AUTO 36003KT 330V040 9999 // NCD 13/11 Q1011
22:50
V
15 °C 10 km+ - Var Var 2 kt METAR EDVK 202050Z AUTO VRB02KT 9999 // FEW093/// 15/12 Q1011
22:20
V
15 °C 10 km+ - 010° 010° 3 kt METAR EDVK 202020Z AUTO 01003KT 330V040 9999 // FEW093/// 15/12 Q1011
21:50
V
16 °C 10 km+ - 360° 360° 3 kt METAR EDVK 201950Z AUTO 36003KT 310V040 9999 // FEW096/// 16/12 Q1011
21:20
V
17 °C 10 km+ - 360° 360° 3 kt METAR EDVK 201920Z 36003KT 320V030 CAVOK 17/13 Q1011
20:50
V
18 °C 10 km+ - 360° 360° 4 kt METAR EDVK 201850Z 36004KT 330V030 CAVOK 18/12 Q1011
20:20
V
19 °C 10 km+ - 010° 010° 3 kt METAR EDVK 201820Z 01003KT 340V050 CAVOK 19/13 Q1010
19:50
V
19 °C 10 km+ - 010° 010° 4 kt METAR EDVK 201750Z 01004KT 340V040 9999 FEW043 19/12 Q1010
19:20
V
20 °C 10 km+ - 020° 020° 5 kt METAR EDVK 201720Z 02005KT 350V050 9999 FEW043 20/12 Q1010
18:50
V
20 °C 10 km+ - 350° 350° 4 kt METAR EDVK 201650Z 35004KT 300V040 9999 SCT044 20/12 Q1010
18:20
V
20 °C 10 km+ - 360° 360° 4 kt METAR EDVK 201620Z 36004KT 280V050 CAVOK 20/11 Q1010
17:50
V
20 °C 10 km+ - 350° 350° 4 kt METAR EDVK 201550Z 35004KT 280V050 9999 SCT033 20/11 Q1010
17:20
V
20 °C 10 km+ - 030° 030° 4 kt METAR EDVK 201520Z 03004KT 350V070 9999 SCT047 20/12 Q1010
16:50
V
19 °C 10 km+ - 340° 340° 3 kt METAR EDVK 201450Z 34003KT 270V040 9999 FEW044TCU 19/12 Q1011
16:20
V
19 °C 10 km+ - 030° 030° 4 kt METAR EDVK 201420Z 03004KT 350V080 9999 FEW041TCU 19/12 Q1011
15:50
V
20 °C 10 km+ - 340° 340° 4 kt METAR EDVK 201350Z 34004KT 260V040 9999 FEW034 SCT043TCU 20/12 Q1011
15:20
V
19 °C 10 km+ - Var Var 2 kt METAR EDVK 201320Z VRB02KT 9999 SCT036TCU 19/12 Q1011
14:50
V
18 °C 10 km+ - Var Var 3 kt METAR EDVK 201250Z VRB03KT 9999 SCT032TCU 18/11 Q1011
14:20
V
19 °C 10 km+ - Var Var 2 kt METAR EDVK 201220Z VRB02KT 9999 SCT038 19/12 Q1011
13:50
V
17 °C 10 km+ - 290° 290° 4 kt METAR EDVK 201150Z 29004KT 9999 -SHRA SCT035 17/13 Q1011
13:20
V
17 °C 10 km+ - 280° 280° 4 kt METAR EDVK 201120Z 28004KT 250V310 9999 SCT030TCU 17/12 Q1012
12:50
V
17 °C 10 km+ - 300° 300° 3 kt METAR EDVK 201050Z 30003KT 9999 FEW009 SCT026TCU 17/12 Q1012
12:20
V
17 °C 10 km+ - 280° 280° 4 kt METAR EDVK 201020Z 28004KT 9999 -SHRA FEW009 SCT026TCU 17/10 Q1012
11:50
V
18 °C 10 km+ - 020° 020° 3 kt METAR EDVK 200950Z 02003KT 350V080 9999 FEW020TCU SCT035 18/12 Q1011
11:20
V
17 °C 10 km+ - 060° 060° 4 kt METAR EDVK 200920Z 06004KT 020V110 9999 SCT018TCU 17/12 Q1011
10:50
V
17 °C 10 km+ - 090° 090° 4 kt METAR EDVK 200850Z 09004KT 030V140 9999 SCT019 17/13 Q1011
10:20
V
16 °C 10 km+ - 120° 120° 3 kt METAR EDVK 200820Z 12003KT 060V200 9999 SCT012 16/12 Q1011
09:50
V
16 °C 10 km+ - Var Var 1 kt METAR EDVK 200750Z VRB01KT 9999 FEW009 SCT014 16/13 Q1011
09:20
V
15 °C 10 km+ - Var Var 2 kt METAR EDVK 200720Z VRB02KT 9999 SCT012 15/12 Q1011
08:50
V
14 °C 10 km+ - Var Var 1 kt METAR EDVK 200650Z VRB01KT 9999 SCT011 14/12 Q1011
08:20
V
14 °C 10 km+ - Var Var 1 kt METAR EDVK 200620Z VRB01KT 9999 FEW008 SCT023 14/12 Q1011
07:50
M
14 °C 10 km+ 2.400 ft 360° 360° 0 kt METAR EDVK 200550Z 00000KT 9999 FEW006 BKN024 14/13 Q1011
Cambiar esta información